createdAt,value
2018-11-20T00:01:13.363Z,58.27
2018-11-20T00:04:20.645Z,57.30
2018-11-20T00:07:22.692Z,57.80
2018-11-20T00:10:24.827Z,57.56
2018-11-20T00:13:34.572Z,57.92
2018-11-20T00:16:39.559Z,57.82
2018-11-20T00:19:49.239Z,57.56
2018-11-20T00:22:53.749Z,57.55
2018-11-20T00:29:05.473Z,57.93
2018-11-20T00:32:13.328Z,57.82
2018-11-20T00:35:23.048Z,57.99
2018-11-20T00:38:30.738Z,58.36
2018-11-20T00:45:00.305Z,58.64
2018-11-20T00:48:03.256Z,58.89
2018-11-20T00:51:15.173Z,58.89
2018-11-20T00:54:15.802Z,59.17
2018-11-20T00:57:07.606Z,59.45
2018-11-20T01:00:18.166Z,60.19
2018-11-20T01:03:20.741Z,60.79
2018-11-20T01:06:30.546Z,61.52
2018-11-20T01:09:33.029Z,61.74
2018-11-20T01:12:42.744Z,61.69
2018-11-20T01:15:44.754Z,61.33
2018-11-20T01:18:54.492Z,61.19
2018-11-20T01:21:55.142Z,61.13
2018-11-20T01:25:04.896Z,61.52
2018-11-20T01:28:10.309Z,61.33
2018-11-20T01:31:20.051Z,60.89
2018-11-20T01:34:22.671Z,60.43
2018-11-20T01:37:32.473Z,60.91
2018-11-20T01:40:37.192Z,61.05
2018-11-20T01:43:44.994Z,60.87
2018-11-20T01:46:49.524Z,61.28
2018-11-20T01:49:57.244Z,61.24
2018-11-20T01:52:59.853Z,61.41
2018-11-20T01:56:09.662Z,61.67
2018-11-20T01:59:18.323Z,61.53
2018-11-20T02:02:30.024Z,61.70
2018-11-20T02:05:37.853Z,62.02
2018-11-20T02:08:49.575Z,61.75
2018-11-20T02:11:40.153Z,61.71
2018-11-20T02:14:49.883Z,61.77
2018-11-20T02:17:55.292Z,61.96
2018-11-20T02:21:18.066Z,61.80
2018-11-20T02:24:14.555Z,61.75
2018-11-20T02:27:24.391Z,61.82
2018-11-20T02:30:27.069Z,61.83
2018-11-20T02:33:36.841Z,61.75
2018-11-20T02:36:39.857Z,61.96
2018-11-20T02:39:50.328Z,61.99
2018-11-20T02:42:50.037Z,62.10
2018-11-20T02:45:59.762Z,62.35
2018-11-20T02:49:08.302Z,62.07
2018-11-20T02:52:18.095Z,62.19
2018-11-20T02:55:12.684Z,62.35
2018-11-20T02:58:52.778Z,62.51
2018-11-20T03:02:07.210Z,62.53
2018-11-20T03:05:09.361Z,62.85
2018-11-20T03:08:19.103Z,62.77
2018-11-20T03:11:21.494Z,62.78
2018-11-20T03:14:20.763Z,63.10
2018-11-20T03:17:25.522Z,63.33
2018-11-20T03:20:32.518Z,63.26
2018-11-20T03:23:33.019Z,63.35
2018-11-20T03:26:40.854Z,63.50
2018-11-20T03:30:03.021Z,63.75
2018-11-20T03:32:57.332Z,63.63
2018-11-20T03:36:07.096Z,63.94
2018-11-20T03:39:12.399Z,64.07
2018-11-20T03:42:22.130Z,63.74
2018-11-20T03:45:23.975Z,63.83
2018-11-20T03:48:36.111Z,64.24
2018-11-20T03:51:36.276Z,64.17
2018-11-20T03:54:46.021Z,64.17
2018-11-20T03:57:51.173Z,64.04
2018-11-20T04:01:00.868Z,64.36
2018-11-20T04:04:06.239Z,64.40
2018-11-20T04:07:16.048Z,64.53
2018-11-20T04:10:17.927Z,64.79
2018-11-20T04:13:28.636Z,64.52
2018-11-20T04:16:31.538Z,64.51
2018-11-20T04:19:39.232Z,64.45
2018-11-20T04:22:42.075Z,64.67
2018-11-20T04:25:53.849Z,64.74
2018-11-20T04:29:00.085Z,64.47
2018-11-20T04:32:29.440Z,64.43
2018-11-20T04:35:31.710Z,64.44
2018-11-20T04:38:33.806Z,64.57
2018-11-20T04:41:35.857Z,64.05
2018-11-20T04:44:45.558Z,63.78
2018-11-20T04:47:42.528Z,63.50
2018-11-20T04:50:52.238Z,63.33
2018-11-20T04:53:54.891Z,63.26
2018-11-20T04:57:04.607Z,63.40
2018-11-20T05:00:07.170Z,63.47
2018-11-20T05:03:16.916Z,63.28
2018-11-20T05:06:19.479Z,63.47
2018-11-20T05:09:30.319Z,63.05
2018-11-20T05:12:28.894Z,63.04
2018-11-20T05:15:50.590Z,63.36
2018-11-20T05:19:03.411Z,63.40
2018-11-20T05:22:04.005Z,63.66
2018-11-20T05:25:13.861Z,63.70
2018-11-20T05:28:05.245Z,63.29
2018-11-20T05:31:28.198Z,63.24
2018-11-20T05:34:24.578Z,62.92
2018-11-20T05:37:34.346Z,63.27
2018-11-20T05:40:37.037Z,63.43
2018-11-20T05:43:46.764Z,63.38
2018-11-20T05:46:43.050Z,63.19
2018-11-20T05:49:46.824Z,63.58
2018-11-20T05:52:46.652Z,63.44
2018-11-20T05:55:49.371Z,63.69
2018-11-20T05:58:59.190Z,63.49
2018-11-20T06:02:02.045Z,63.29
2018-11-20T06:05:11.777Z,63.33
2018-11-20T06:08:13.683Z,63.45
2018-11-20T06:11:23.592Z,63.45
2018-11-20T06:14:26.332Z,63.60
2018-11-20T06:17:36.250Z,63.48
2018-11-20T06:20:41.235Z,63.25
2018-11-20T06:23:49.527Z,63.58
2018-11-20T06:26:51.286Z,63.26
2018-11-20T06:30:01.010Z,62.97
2018-11-20T06:33:09.327Z,62.96
2018-11-20T06:36:19.055Z,62.59
2018-11-20T06:39:20.864Z,62.11
2018-11-20T06:42:32.560Z,62.44
2018-11-20T06:45:32.806Z,62.24
2018-11-20T06:48:44.720Z,62.18
2018-11-20T06:51:41.295Z,62.10
2018-11-20T06:54:49.051Z,62.34
2018-11-20T06:57:51.064Z,61.93
2018-11-20T07:01:00.800Z,61.88
2018-11-20T07:04:09.283Z,62.15
2018-11-20T07:07:19.111Z,62.90
2018-11-20T07:10:27.168Z,62.11
2018-11-20T07:13:45.120Z,61.86
2018-11-20T07:16:48.045Z,62.09
2018-11-20T07:19:58.640Z,61.87
2018-11-20T07:23:09.108Z,62.24
2018-11-20T07:26:16.896Z,62.39
2018-11-20T07:29:21.382Z,62.09
2018-11-20T07:32:28.491Z,62.29
2018-11-20T07:35:31.069Z,62.42
2018-11-20T07:38:40.790Z,62.57
2018-11-20T07:41:43.479Z,62.39
2018-11-20T07:44:53.225Z,62.29
2018-11-20T07:47:55.841Z,62.36
2018-11-20T07:50:50.432Z,62.12
2018-11-20T07:54:00.243Z,62.26
2018-11-20T07:57:04.944Z,62.62
2018-11-20T08:00:12.019Z,62.30
2018-11-20T08:03:08.284Z,62.57
2018-11-20T08:06:16.092Z,62.32
2018-11-20T08:09:14.165Z,62.55
2018-11-20T08:12:25.889Z,62.52
2018-11-20T08:15:25.439Z,62.87
2018-11-20T08:18:37.759Z,62.54
2018-11-20T08:21:45.104Z,62.45
2018-11-20T08:24:47.103Z,62.48
2018-11-20T08:27:56.933Z,62.52
2018-11-20T08:31:03.644Z,62.57
2018-11-20T08:34:10.809Z,62.35
2018-11-20T08:37:10.168Z,62.50
2018-11-20T08:40:19.857Z,62.46
2018-11-20T08:43:29.619Z,62.80
2018-11-20T08:46:31.529Z,62.98
2018-11-20T08:49:41.267Z,63.08
2018-11-20T08:52:43.693Z,63.00
2018-11-20T08:55:56.146Z,62.99
2018-11-20T08:59:03.167Z,62.49
2018-11-20T09:02:05.425Z,62.28
2018-11-20T09:05:15.112Z,62.84
2018-11-20T09:08:24.848Z,62.56
2018-11-20T09:11:34.577Z,62.74
2018-11-20T09:14:37.310Z,62.81
2018-11-20T09:17:47.074Z,62.75
2018-11-20T09:20:48.708Z,62.89
2018-11-20T09:23:53.149Z,63.14
2018-11-20T09:27:00.914Z,62.94
2018-11-20T09:30:10.625Z,62.64
2018-11-20T09:33:12.912Z,62.35
2018-11-20T09:36:22.577Z,62.55
2018-11-20T09:39:18.918Z,62.29
2018-11-20T09:42:28.708Z,62.28
2018-11-20T09:45:55.415Z,62.07
2018-11-20T09:48:53.542Z,61.92
2018-11-20T09:52:03.308Z,61.59
2018-11-20T09:55:05.142Z,61.77
2018-11-20T09:58:14.953Z,61.74
2018-11-20T10:01:17.659Z,62.36
2018-11-20T10:04:27.385Z,61.99
2018-11-20T10:07:29.626Z,62.13
2018-11-20T10:10:41.263Z,61.48
2018-11-20T10:13:34.833Z,61.50
2018-11-20T10:16:44.546Z,61.96
2018-11-20T10:19:46.941Z,61.85
2018-11-20T10:22:56.648Z,61.67
2018-11-20T10:25:59.438Z,61.55
2018-11-20T10:29:09.102Z,61.70
2018-11-20T10:32:11.507Z,61.93
2018-11-20T10:35:21.237Z,62.06
2018-11-20T10:38:23.852Z,61.64
2018-11-20T10:41:33.542Z,61.35
2018-11-20T10:44:39.011Z,61.49
2018-11-20T10:47:48.776Z,61.45
2018-11-20T10:50:51.069Z,62.17
2018-11-20T10:54:00.786Z,61.30
2018-11-20T10:57:08.528Z,61.83
2018-11-20T11:00:18.249Z,61.77
2018-11-20T11:03:20.865Z,62.24
2018-11-20T11:06:30.739Z,62.21
2018-11-20T11:09:20.735Z,62.40
2018-11-20T11:12:30.479Z,62.03
2018-11-20T11:15:37.148Z,62.08
2018-11-20T11:18:36.708Z,61.98
2018-11-20T11:24:49.086Z,61.95
2018-11-20T11:27:58.920Z,61.74
2018-11-20T11:31:00.541Z,61.86
2018-11-20T11:34:10.259Z,61.78
2018-11-20T11:37:15.193Z,61.59
2018-11-20T11:40:15.473Z,61.57
2018-11-20T11:43:17.608Z,60.98
2018-11-20T11:46:27.404Z,61.15
2018-11-20T11:49:29.833Z,61.06
2018-11-20T11:52:39.564Z,61.31
2018-11-20T11:55:41.783Z,61.11
2018-11-20T11:58:51.496Z,61.56
2018-11-20T12:05:03.244Z,61.81
2018-11-20T12:08:15.903Z,62.04
2018-11-20T12:11:25.663Z,62.12
2018-11-20T12:14:27.900Z,62.12
2018-11-20T12:17:37.718Z,62.24
2018-11-20T12:20:43.307Z,62.42
2018-11-20T12:23:49.212Z,62.25
2018-11-20T12:26:51.944Z,62.36
2018-11-20T12:30:01.672Z,62.43
2018-11-20T12:33:06.694Z,61.81
2018-11-20T12:36:14.222Z,62.21
2018-11-20T12:39:15.738Z,61.74
2018-11-20T12:42:25.470Z,62.39
2018-11-20T12:45:27.995Z,62.29
2018-11-20T12:48:40.349Z,62.37
2018-11-20T12:51:38.627Z,62.54
2018-11-20T12:54:48.496Z,62.16
2018-11-20T12:57:58.445Z,62.27
2018-11-20T13:01:03.381Z,62.67
2018-11-20T13:04:10.229Z,62.82
2018-11-20T13:07:15.484Z,62.79
2018-11-20T13:10:22.617Z,62.70
2018-11-20T13:13:25.185Z,63.12
2018-11-20T13:19:57.437Z,63.11
2018-11-20T13:23:07.183Z,63.02
2018-11-20T13:26:09.723Z,63.13
2018-11-20T13:29:19.487Z,63.25
2018-11-20T13:32:21.190Z,63.40
2018-11-20T13:35:30.957Z,63.49
2018-11-20T13:38:25.400Z,63.08
2018-11-20T13:41:54.784Z,62.93
2018-11-20T13:45:03.649Z,63.29
2018-11-20T13:48:03.912Z,63.28
2018-11-20T13:51:13.646Z,63.04
2018-11-20T13:54:35.314Z,62.85
2018-11-20T13:57:46.058Z,63.25
2018-11-20T14:00:48.718Z,63.21
2018-11-20T14:07:07.270Z,63.72
2018-11-20T14:10:06.659Z,63.25
2018-11-20T14:13:16.627Z,63.08
2018-11-20T14:16:10.961Z,63.11
2018-11-20T14:19:20.678Z,63.23
2018-11-20T14:22:23.018Z,63.13
2018-11-20T14:25:51.653Z,63.34
2018-11-20T14:28:56.370Z,63.53
2018-11-20T14:32:05.765Z,63.09
2018-11-20T14:35:12.824Z,62.78
2018-11-20T14:38:22.561Z,62.41
2018-11-20T14:41:32.381Z,62.22
2018-11-20T14:44:34.405Z,61.93
2018-11-20T14:47:44.201Z,61.58
2018-11-20T14:50:46.822Z,63.31
2018-11-20T14:53:56.895Z,62.45
2018-11-20T14:57:01.772Z,62.03
2018-11-20T15:00:11.520Z,62.73
2018-11-20T15:03:18.953Z,62.85
2018-11-20T15:06:28.760Z,62.82
2018-11-20T15:09:29.361Z,63.14
2018-11-20T15:12:39.121Z,63.31
2018-11-20T15:15:42.518Z,63.39
2018-11-20T15:18:52.271Z,63.55
2018-11-20T15:22:02.604Z,63.99
2018-11-20T15:25:09.660Z,63.87
2018-11-20T15:28:12.105Z,64.88
2018-11-20T15:31:13.942Z,65.32
2018-11-20T15:34:23.720Z,65.77
2018-11-20T15:37:28.677Z,66.55
2018-11-20T15:40:38.474Z,67.67
2018-11-20T15:43:42.424Z,68.29
2018-11-20T15:46:52.234Z,69.28
2018-11-20T15:49:54.451Z,70.47
2018-11-20T15:53:04.214Z,71.45
2018-11-20T15:56:12.067Z,72.47
2018-11-20T15:59:21.833Z,73.19
2018-11-20T16:02:24.610Z,73.72
2018-11-20T16:05:34.388Z,74.40
2018-11-20T16:08:36.997Z,74.68
2018-11-20T16:11:46.740Z,74.97
2018-11-20T16:14:56.505Z,75.16
2018-11-20T16:17:59.949Z,75.35
2018-11-20T16:21:01.661Z,75.56
2018-11-20T16:24:11.454Z,75.98
2018-11-20T16:27:14.292Z,76.00
2018-11-20T16:30:24.555Z,76.39
2018-11-20T16:33:28.691Z,76.62
2018-11-20T16:36:36.329Z,77.02
2018-11-20T16:39:38.317Z,77.08
2018-11-20T16:42:48.137Z,77.37
2018-11-20T16:45:50.494Z,77.63
2018-11-20T16:49:00.336Z,78.01
2018-11-20T16:52:02.435Z,78.39
2018-11-20T16:55:12.190Z,78.32
2018-11-20T16:58:21.985Z,78.54
2018-11-20T17:01:31.948Z,79.27
2018-11-20T17:04:44.256Z,79.67
2018-11-20T17:07:44.198Z,79.76
2018-11-20T17:14:21.277Z,80.78
2018-11-20T17:17:25.440Z,81.18
2018-11-20T17:20:28.204Z,81.36
2018-11-20T17:23:21.435Z,81.59
2018-11-20T17:26:31.191Z,80.72
2018-11-20T17:29:30.382Z,81.16
2018-11-20T17:32:40.099Z,81.62
2018-11-20T17:35:45.075Z,81.73
2018-11-20T17:38:33.363Z,80.94
2018-11-20T17:41:35.877Z,80.75
2018-11-20T17:44:45.602Z,80.92
2018-11-20T17:47:50.604Z,81.42
2018-11-20T17:50:57.520Z,81.08
2018-11-20T17:53:59.369Z,81.08
2018-11-20T17:57:11.899Z,81.01
2018-11-20T18:00:11.816Z,81.12
2018-11-20T18:03:21.583Z,80.83
2018-11-20T18:06:16.270Z,81.48
2018-11-20T18:09:31.077Z,81.20
2018-11-20T18:12:30.461Z,81.12
2018-11-20T18:15:40.204Z,81.17
2018-11-20T18:19:08.823Z,80.59
2018-11-20T18:22:15.990Z,80.68
2018-11-20T18:25:38.020Z,80.50
2018-11-20T18:28:47.824Z,80.55
2018-11-20T18:31:50.889Z,80.90
2018-11-20T18:34:51.789Z,81.22
2018-11-20T18:38:01.584Z,80.36
2018-11-20T18:41:07.033Z,80.40
2018-11-20T18:44:17.496Z,80.01
2018-11-20T18:47:16.098Z,80.23
2018-11-20T18:50:27.753Z,80.07
2018-11-20T18:53:27.918Z,79.76
2018-11-20T18:56:40.551Z,79.95
2018-11-20T18:59:47.580Z,79.69
2018-11-20T19:02:51.978Z,79.34
2018-11-20T19:05:59.492Z,79.56
2018-11-20T19:09:02.140Z,79.68
2018-11-20T19:12:11.912Z,79.44
2018-11-20T19:15:14.553Z,78.67
2018-11-20T19:18:25.419Z,79.11
2018-11-20T19:21:27.413Z,79.27
2018-11-20T19:24:37.241Z,79.15
2018-11-20T19:27:39.146Z,79.22
2018-11-20T19:30:49.273Z,78.50
2018-11-20T19:33:51.994Z,78.53
2018-11-20T19:37:03.720Z,78.93
2018-11-20T19:40:06.963Z,78.92
2018-11-20T19:43:14.091Z,79.23
2018-11-20T19:46:13.261Z,78.63
2018-11-20T19:49:23.037Z,78.56
2018-11-20T19:52:25.497Z,78.55
2018-11-20T19:55:28.487Z,78.43
2018-11-20T19:58:32.861Z,78.04
2018-11-20T20:01:43.799Z,77.55
2018-11-20T20:04:51.984Z,78.05
2018-11-20T20:07:58.986Z,77.74
2018-11-20T20:10:54.131Z,77.98
2018-11-20T20:14:06.569Z,77.45
2018-11-20T20:17:06.542Z,77.16
2018-11-20T20:20:16.420Z,77.67
2018-11-20T20:23:18.677Z,77.81
2018-11-20T20:26:24.858Z,77.88
2018-11-20T20:29:24.977Z,77.15
2018-11-20T20:32:18.684Z,77.71
2018-11-20T20:35:25.975Z,77.57
2018-11-20T20:38:38.491Z,77.42
2018-11-20T20:41:37.896Z,77.42
2018-11-20T20:44:47.653Z,77.64
2018-11-20T20:48:09.805Z,77.34
2018-11-20T20:51:19.835Z,77.15
2018-11-20T20:54:22.385Z,77.38
2018-11-20T20:57:34.269Z,77.54
2018-11-20T21:00:34.919Z,77.50
2018-11-20T21:03:39.350Z,77.37
2018-11-20T21:06:41.586Z,77.82
2018-11-20T21:09:51.408Z,77.91
2018-11-20T21:12:56.191Z,78.00
2018-11-20T21:16:05.964Z,77.86
2018-11-20T21:19:15.709Z,78.64
2018-11-20T21:22:23.216Z,78.47
2018-11-20T21:25:31.020Z,78.40
2018-11-20T21:28:32.958Z,79.41
2018-11-20T21:31:42.731Z,79.16
2018-11-20T21:34:47.975Z,79.40
2018-11-20T21:37:57.819Z,79.86
2018-11-20T21:41:00.383Z,79.60
2018-11-20T21:44:12.331Z,79.24
2018-11-20T21:47:18.808Z,79.30
2018-11-20T21:50:20.986Z,79.15
2018-11-20T21:53:30.810Z,78.80
2018-11-20T21:56:32.052Z,78.93
2018-11-20T22:00:02.911Z,78.99
2018-11-20T22:03:05.419Z,78.88
2018-11-20T22:06:13.892Z,79.16
2018-11-20T22:09:18.308Z,78.67
2018-11-20T22:12:25.629Z,78.97
2018-11-20T22:15:25.865Z,79.22
2018-11-20T22:18:33.690Z,78.54
2018-11-20T22:21:36.279Z,78.72
2018-11-20T22:24:46.027Z,78.92
2018-11-20T22:27:50.897Z,79.19
2018-11-20T22:31:00.668Z,79.56
2018-11-20T22:33:55.801Z,79.08
2018-11-20T22:37:10.102Z,79.37
2018-11-20T22:40:07.731Z,79.11
2018-11-20T22:43:19.317Z,79.13
2018-11-20T22:46:22.445Z,79.05
2018-11-20T22:49:32.265Z,79.43
2018-11-20T22:52:34.872Z,79.22
2018-11-20T22:55:46.287Z,79.44
2018-11-20T22:58:38.351Z,78.92
2018-11-20T23:01:48.099Z,79.41
2018-11-20T23:04:55.052Z,79.10
2018-11-20T23:08:10.362Z,79.43
2018-11-20T23:10:51.579Z,79.44
2018-11-20T23:13:42.845Z,79.60
2018-11-20T23:16:48.384Z,79.56
2018-11-20T23:19:39.631Z,79.42
2018-11-20T23:22:23.166Z,79.61
2018-11-20T23:25:18.120Z,79.36
2018-11-20T23:27:59.095Z,79.30
2018-11-20T23:30:50.387Z,79.36
2018-11-20T23:33:34.323Z,79.40
2018-11-20T23:36:25.522Z,79.59
2018-11-20T23:39:10.809Z,79.52
2018-11-20T23:42:02.026Z,79.98
2018-11-20T23:44:45.315Z,79.69
2018-11-20T23:47:36.842Z,79.61
2018-11-20T23:50:23.210Z,79.54
2018-11-20T23:53:11.890Z,79.72
2018-11-20T23:55:54.681Z,80.20
2018-11-20T23:58:35.890Z,80.08
